createdAt,value
2023-03-04T00:01:13.637Z,-0.81
2023-03-04T00:06:16.817Z,-0.74
2023-03-04T00:11:20.871Z,-0.66
2023-03-04T00:16:23.805Z,-0.60
2023-03-04T00:21:26.625Z,-0.53
2023-03-04T00:26:30.757Z,-0.49
2023-03-04T00:31:33.604Z,-0.39
2023-03-04T00:36:36.414Z,-0.33
2023-03-04T00:41:40.706Z,-0.28
2023-03-04T00:46:44.185Z,-0.23
2023-03-04T00:51:46.998Z,-0.17
2023-03-04T00:56:51.360Z,-0.12
2023-03-04T01:01:54.142Z,-0.06
2023-03-04T01:06:56.911Z,-0.01
2023-03-04T01:12:00.992Z,0.05
2023-03-04T01:17:04.169Z,0.09
2023-03-04T01:22:07.090Z,0.13
2023-03-04T01:27:11.288Z,0.17
2023-03-04T01:32:14.140Z,0.21
2023-03-04T01:37:19.085Z,0.26
2023-03-04T01:42:35.679Z,0.29
2023-03-04T01:47:38.501Z,0.34
2023-03-04T01:52:43.869Z,0.36
2023-03-04T01:57:49.878Z,0.40
2023-03-04T02:02:56.915Z,0.46
2023-03-04T02:08:01.513Z,0.44
2023-03-04T02:13:06.905Z,0.48
2023-03-04T02:18:16.813Z,0.52
2023-03-04T02:23:27.122Z,0.54
2023-03-04T02:28:31.610Z,0.60
2023-03-04T02:33:34.528Z,0.60
2023-03-04T02:38:38.741Z,0.62
2023-03-04T02:43:44.448Z,0.62
2023-03-04T02:48:47.407Z,0.62
2023-03-04T02:53:50.244Z,0.65
2023-03-04T02:58:54.508Z,0.68
2023-03-04T03:03:57.786Z,0.70
2023-03-04T03:09:01.058Z,0.71
2023-03-04T03:14:08.902Z,0.74
2023-03-04T03:19:11.684Z,0.73
2023-03-04T03:24:15.618Z,0.75
2023-03-04T03:29:19.956Z,0.79
2023-03-04T03:34:22.727Z,0.80
2023-03-04T03:39:26.348Z,0.87
2023-03-04T03:44:30.693Z,0.90
2023-03-04T03:49:33.631Z,0.93
2023-03-04T03:54:36.650Z,0.96
2023-03-04T03:59:40.876Z,0.96
2023-03-04T04:04:43.731Z,1.01
2023-03-04T04:09:46.661Z,1.03
2023-03-04T04:14:50.835Z,1.09
2023-03-04T04:19:53.668Z,1.11
2023-03-04T04:24:56.446Z,1.13
2023-03-04T04:30:00.664Z,1.15
2023-03-04T04:35:03.479Z,1.17
2023-03-04T04:40:07.446Z,1.20
2023-03-04T04:45:12.438Z,1.22
2023-03-04T04:50:15.140Z,1.26
2023-03-04T04:55:18.073Z,1.26
2023-03-04T05:00:23.033Z,1.30
2023-03-04T05:05:26.697Z,1.31
2023-03-04T05:10:29.518Z,1.32
2023-03-04T05:15:33.859Z,1.33
2023-03-04T05:20:37.224Z,1.34
2023-03-04T05:25:39.980Z,1.37
2023-03-04T05:30:45.963Z,1.36
2023-03-04T05:35:50.904Z,1.41
2023-03-04T05:40:58.689Z,1.41
2023-03-04T05:46:03.868Z,1.43
2023-03-04T05:51:07.182Z,1.46
2023-03-04T05:56:11.023Z,1.46
2023-03-04T06:01:15.836Z,1.48
2023-03-04T06:06:19.328Z,1.48
2023-03-04T06:11:22.133Z,1.54
2023-03-04T06:16:26.529Z,1.56
2023-03-04T06:21:29.457Z,1.60
2023-03-04T06:26:32.517Z,1.63
2023-03-04T06:31:36.940Z,1.68
2023-03-04T06:36:39.782Z,1.72
2023-03-04T06:41:42.705Z,1.75
2023-03-04T06:46:46.990Z,1.80
2023-03-04T06:51:49.832Z,1.84
2023-03-04T06:56:52.528Z,1.89
2023-03-04T07:01:56.965Z,1.93
2023-03-04T07:06:59.828Z,2.00
2023-03-04T07:12:02.610Z,2.08
2023-03-04T07:17:06.706Z,2.12
2023-03-04T07:22:09.504Z,2.19
2023-03-04T07:27:12.461Z,2.26
2023-03-04T07:32:19.162Z,2.33
2023-03-04T07:37:22.577Z,2.45
2023-03-04T07:42:25.348Z,2.57
2023-03-04T07:47:36.760Z,2.58
2023-03-04T07:52:40.053Z,2.68
2023-03-04T07:57:43.677Z,2.74
2023-03-04T08:02:47.999Z,2.81
2023-03-04T08:07:50.970Z,2.81
2023-03-04T08:12:53.828Z,2.88
2023-03-04T08:17:57.956Z,2.98
2023-03-04T08:23:01.036Z,3.04
2023-03-04T08:28:04.204Z,3.13
2023-03-04T08:33:09.313Z,3.24
2023-03-04T08:38:12.018Z,3.24
2023-03-04T08:43:14.713Z,3.30
2023-03-04T08:48:19.357Z,3.41
2023-03-04T08:53:23.094Z,3.58
2023-03-04T08:58:25.952Z,3.47
2023-03-04T09:03:30.251Z,3.62
2023-03-04T09:08:34.204Z,3.78
2023-03-04T09:13:37.790Z,3.76
2023-03-04T09:18:43.259Z,3.79
2023-03-04T09:23:46.119Z,3.80
2023-03-04T09:28:51.736Z,3.75
2023-03-04T09:33:58.866Z,3.77
2023-03-04T09:39:02.258Z,3.85
2023-03-04T09:44:11.642Z,3.91
2023-03-04T09:49:18.078Z,4.01
2023-03-04T09:54:31.175Z,3.97
2023-03-04T09:59:43.038Z,4.00
2023-03-04T10:04:51.313Z,3.99
2023-03-04T10:09:59.888Z,4.10
2023-03-04T10:15:07.041Z,4.18
2023-03-04T10:20:16.388Z,4.07
2023-03-04T10:25:22.191Z,4.18
2023-03-04T10:30:38.083Z,4.35
2023-03-04T10:35:46.360Z,4.27
2023-03-04T10:40:49.821Z,4.32
2023-03-04T10:45:56.405Z,4.40
2023-03-04T10:51:14.478Z,4.55
2023-03-04T10:56:39.116Z,4.97
2023-03-04T11:01:42.646Z,5.05
2023-03-04T11:06:46.949Z,4.92
2023-03-04T11:11:52.130Z,5.18
2023-03-04T11:16:57.196Z,5.53
2023-03-04T11:22:02.646Z,5.75
2023-03-04T11:27:09.387Z,5.64
2023-03-04T11:32:20.200Z,5.63
2023-03-04T11:37:31.424Z,5.40
2023-03-04T11:42:41.802Z,5.39
2023-03-04T11:47:58.422Z,5.53
2023-03-04T11:53:22.170Z,5.74
2023-03-04T11:58:45.565Z,5.64
2023-03-04T12:04:14.899Z,5.73
2023-03-04T12:09:37.204Z,5.88
2023-03-04T12:14:45.214Z,6.13
2023-03-04T12:20:04.518Z,6.10
2023-03-04T12:25:29.596Z,6.19
2023-03-04T12:30:41.385Z,6.32
2023-03-04T12:35:53.635Z,6.36
2023-03-04T12:41:04.285Z,6.33
2023-03-04T12:46:19.140Z,6.14
2023-03-04T12:51:31.888Z,6.30
2023-03-04T12:56:44.345Z,6.29
2023-03-04T13:01:55.026Z,6.19
2023-03-04T13:07:13.234Z,5.95
2023-03-04T13:12:22.074Z,5.92
2023-03-04T13:17:43.259Z,5.83
2023-03-04T13:22:51.963Z,5.76
2023-03-04T13:28:27.165Z,5.76
2023-03-04T13:33:51.881Z,5.69
2023-03-04T13:39:02.464Z,5.71
2023-03-04T13:44:22.953Z,5.74
2023-03-04T13:49:26.202Z,5.85
2023-03-04T13:54:32.252Z,5.95
2023-03-04T13:59:42.980Z,6.04
2023-03-04T14:04:48.770Z,5.97
2023-03-04T14:09:58.551Z,5.88
2023-03-04T14:15:07.364Z,6.00
2023-03-04T14:20:25.937Z,5.95
2023-03-04T14:25:30.770Z,5.79
2023-03-04T14:30:43.436Z,5.70
2023-03-04T14:35:49.113Z,5.60
2023-03-04T14:40:55.388Z,5.59
2023-03-04T14:46:03.558Z,5.57
2023-03-04T14:51:08.730Z,5.40
2023-03-04T14:56:12.096Z,5.33
2023-03-04T15:01:20.248Z,5.31
2023-03-04T15:06:28.309Z,5.30
2023-03-04T15:11:33.969Z,5.31
2023-03-04T15:16:56.992Z,5.36
2023-03-04T15:22:08.086Z,5.24
2023-03-04T15:27:13.400Z,5.20
2023-03-04T15:32:19.340Z,5.24
2023-03-04T15:37:24.353Z,5.20
2023-03-04T15:42:28.147Z,5.14
2023-03-04T15:47:32.434Z,5.15
2023-03-04T15:52:36.567Z,5.09
2023-03-04T15:57:39.415Z,5.07
2023-03-04T16:02:43.684Z,5.06
2023-03-04T16:07:49.343Z,5.00
2023-03-04T16:12:53.373Z,4.94
2023-03-04T16:17:59.631Z,4.89
2023-03-04T16:23:03.428Z,4.87
2023-03-04T16:28:07.503Z,4.89
2023-03-04T16:33:12.518Z,4.85
2023-03-04T16:38:25.695Z,4.84
2023-03-04T16:43:29.356Z,4.79
2023-03-04T16:48:34.509Z,4.75
2023-03-04T16:53:39.392Z,4.76
2023-03-04T16:58:42.361Z,4.72
2023-03-04T17:03:47.487Z,4.67
2023-03-04T17:08:50.919Z,4.69
2023-03-04T17:13:53.738Z,4.67
2023-03-04T17:18:58.284Z,4.63
2023-03-04T17:24:01.080Z,4.65
2023-03-04T17:29:03.917Z,4.65
2023-03-04T17:34:08.081Z,4.63
2023-03-04T17:39:11.993Z,4.60
2023-03-04T17:44:15.661Z,4.57
2023-03-04T17:49:19.820Z,4.53
2023-03-04T17:54:22.613Z,4.51
2023-03-04T17:59:25.590Z,4.51
2023-03-04T18:04:29.720Z,4.48
2023-03-04T18:09:32.589Z,4.43
2023-03-04T18:14:36.125Z,4.41
2023-03-04T18:19:40.964Z,4.39
2023-03-04T18:24:43.952Z,4.40
2023-03-04T18:29:46.674Z,4.39
2023-03-04T18:34:50.983Z,4.41
2023-03-04T18:39:54.154Z,4.41
2023-03-04T18:44:56.920Z,4.38
2023-03-04T18:50:01.092Z,4.38
2023-03-04T18:55:04.052Z,4.38
2023-03-04T19:00:11.504Z,4.36
2023-03-04T19:05:21.108Z,4.36
2023-03-04T19:10:25.512Z,4.34
2023-03-04T19:15:28.788Z,4.35
2023-03-04T19:20:33.058Z,4.30
2023-03-04T19:25:38.615Z,4.29
2023-03-04T19:30:42.673Z,4.22
2023-03-04T19:35:47.524Z,4.25
2023-03-04T19:40:51.111Z,4.23
2023-03-04T19:45:55.260Z,4.20
2023-03-04T19:50:59.821Z,4.17
2023-03-04T19:56:02.760Z,4.15
2023-03-04T20:01:05.982Z,4.15
2023-03-04T20:06:10.758Z,4.11
2023-03-04T20:11:14.169Z,4.10
2023-03-04T20:16:17.394Z,4.08
2023-03-04T20:21:21.666Z,4.05
2023-03-04T20:26:24.781Z,4.03
2023-03-04T20:31:31.402Z,3.98
2023-03-04T20:36:35.911Z,3.97
2023-03-04T20:41:39.624Z,3.97
2023-03-04T20:46:45.632Z,3.98
2023-03-04T20:51:50.503Z,3.97
2023-03-04T20:56:53.323Z,3.96
2023-03-04T21:01:56.586Z,3.97
2023-03-04T21:07:01.005Z,3.96
2023-03-04T21:12:03.721Z,3.94
2023-03-04T21:17:07.282Z,3.92
2023-03-04T21:22:15.703Z,3.92
2023-03-04T21:27:19.282Z,3.91
2023-03-04T21:32:25.840Z,3.91
2023-03-04T21:37:30.129Z,3.90
2023-03-04T21:42:33.258Z,3.89
2023-03-04T21:47:36.195Z,3.88
2023-03-04T21:52:40.532Z,3.87
2023-03-04T21:57:44.861Z,3.86
2023-03-04T22:02:47.585Z,3.86
2023-03-04T22:07:52.676Z,3.86
2023-03-04T22:12:55.521Z,3.82
2023-03-04T22:17:58.671Z,3.82
2023-03-04T22:23:02.971Z,3.81
2023-03-04T22:28:06.969Z,3.80
2023-03-04T22:33:10.389Z,3.76
2023-03-04T22:38:14.576Z,3.78
2023-03-04T22:43:17.436Z,3.73
2023-03-04T22:48:20.335Z,3.74
2023-03-04T22:53:26.174Z,3.72
2023-03-04T22:58:28.987Z,3.71
2023-03-04T23:03:31.910Z,3.68
2023-03-04T23:08:37.089Z,3.67
2023-03-04T23:13:41.701Z,3.70
2023-03-04T23:18:46.550Z,3.68
2023-03-04T23:23:51.264Z,3.68
2023-03-04T23:28:55.755Z,3.66
2023-03-04T23:34:00.909Z,3.62
2023-03-04T23:39:06.100Z,3.63
2023-03-04T23:44:09.414Z,3.63
2023-03-04T23:49:14.765Z,3.62
2023-03-04T23:54:19.160Z,3.58
2023-03-04T23:59:21.968Z,3.55
